createdAt,value
2022-09-17T00:01:04.536Z,12.69
2022-09-17T00:03:34.152Z,12.69
2022-09-17T00:06:03.167Z,12.71
2022-09-17T00:08:31.143Z,12.72
2022-09-17T00:10:58.800Z,12.71
2022-09-17T00:13:27.815Z,12.72
2022-09-17T00:15:55.661Z,12.70
2022-09-17T00:18:23.361Z,12.70
2022-09-17T00:20:51.001Z,12.67
2022-09-17T00:23:18.642Z,12.67
2022-09-17T00:25:47.066Z,12.69
2022-09-17T00:28:16.130Z,12.74
2022-09-17T00:30:46.726Z,12.73
2022-09-17T00:33:16.504Z,12.71
2022-09-17T00:35:45.139Z,12.65
2022-09-17T00:38:12.818Z,12.66
2022-09-17T00:40:40.481Z,12.63
2022-09-17T00:43:12.675Z,12.56
2022-09-17T00:45:40.457Z,12.57
2022-09-17T00:48:12.594Z,12.57
2022-09-17T00:50:43.559Z,12.50
2022-09-17T00:53:15.823Z,12.50
2022-09-17T00:55:46.907Z,12.50
2022-09-17T00:58:17.814Z,12.50
2022-09-17T01:00:45.642Z,12.41
2022-09-17T01:03:15.075Z,12.31
2022-09-17T01:05:47.398Z,12.28
2022-09-17T01:08:26.105Z,12.22
2022-09-17T01:11:16.177Z,12.20
2022-09-17T01:13:55.393Z,12.19
2022-09-17T01:16:30.690Z,12.20
2022-09-17T01:19:13.854Z,12.11
2022-09-17T01:21:51.939Z,12.11
2022-09-17T01:24:34.718Z,12.10
2022-09-17T01:27:17.916Z,12.09
2022-09-17T01:30:01.891Z,12.15
2022-09-17T01:32:39.673Z,12.19
2022-09-17T01:35:14.999Z,12.16
2022-09-17T01:37:49.746Z,12.22
2022-09-17T01:40:27.478Z,12.22
2022-09-17T01:43:00.405Z,12.29
2022-09-17T01:45:36.131Z,12.30
2022-09-17T01:48:11.581Z,12.32
2022-09-17T01:50:43.641Z,12.34
2022-09-17T01:53:13.034Z,12.35
2022-09-17T01:55:44.805Z,12.34
2022-09-17T01:58:18.430Z,12.32
2022-09-17T02:00:51.934Z,12.24
2022-09-17T02:03:30.280Z,12.24
2022-09-17T02:06:01.695Z,12.26
2022-09-17T02:08:36.938Z,12.23
2022-09-17T02:11:08.685Z,12.21
2022-09-17T02:13:42.188Z,12.24
2022-09-17T02:16:14.500Z,12.23
2022-09-17T02:18:50.205Z,12.16
2022-09-17T02:21:27.565Z,12.16
2022-09-17T02:24:12.402Z,12.20
2022-09-17T02:26:46.846Z,12.22
2022-09-17T02:29:22.926Z,12.27
2022-09-17T02:31:51.145Z,12.27
2022-09-17T02:34:21.331Z,12.21
2022-09-17T02:36:49.142Z,12.15
2022-09-17T02:39:17.579Z,12.12
2022-09-17T02:41:50.232Z,12.05
2022-09-17T02:44:27.427Z,11.98
2022-09-17T02:47:13.433Z,11.97
2022-09-17T02:50:01.706Z,11.98
2022-09-17T02:52:43.145Z,11.94
2022-09-17T02:55:18.902Z,11.84
2022-09-17T02:57:51.582Z,11.85
2022-09-17T03:00:21.833Z,11.89
2022-09-17T03:02:54.591Z,11.97
2022-09-17T03:05:24.634Z,11.99
2022-09-17T03:07:52.575Z,11.98
2022-09-17T03:10:20.258Z,12.05
2022-09-17T03:12:47.927Z,12.01
2022-09-17T03:15:15.847Z,12.04
2022-09-17T03:17:43.484Z,12.13
2022-09-17T03:20:11.291Z,12.10
2022-09-17T03:22:40.285Z,12.14
2022-09-17T03:25:08.963Z,12.17
2022-09-17T03:27:36.649Z,12.19
2022-09-17T03:30:05.355Z,12.21
2022-09-17T03:32:32.967Z,12.14
2022-09-17T03:35:00.631Z,12.18
2022-09-17T03:37:32.872Z,12.24
2022-09-17T03:40:02.595Z,12.16
2022-09-17T03:42:30.494Z,12.18
2022-09-17T03:44:58.162Z,12.21
2022-09-17T03:47:25.870Z,12.20
2022-09-17T03:49:53.535Z,12.21
2022-09-17T03:52:21.177Z,12.17
2022-09-17T03:54:49.185Z,12.13
2022-09-17T03:57:18.179Z,12.14
2022-09-17T03:59:45.793Z,12.04
2022-09-17T04:02:13.509Z,12.04
2022-09-17T04:04:41.189Z,12.11
2022-09-17T04:07:08.892Z,12.13
2022-09-17T04:09:36.506Z,12.11
2022-09-17T04:12:04.823Z,12.13
2022-09-17T04:14:33.801Z,12.15
2022-09-17T04:17:01.512Z,12.14
2022-09-17T04:19:29.170Z,12.13
2022-09-17T04:21:56.763Z,12.14
2022-09-17T04:24:24.360Z,12.18
2022-09-17T04:26:51.944Z,12.18
2022-09-17T04:29:19.577Z,12.10
2022-09-17T04:31:48.565Z,12.08
2022-09-17T04:34:16.175Z,12.09
2022-09-17T04:36:43.766Z,12.11
2022-09-17T04:39:11.595Z,12.14
2022-09-17T04:41:39.236Z,12.09
2022-09-17T04:44:07.021Z,12.11
2022-09-17T04:46:34.778Z,12.05
2022-09-17T04:49:03.817Z,12.03
2022-09-17T04:51:31.452Z,12.02
2022-09-17T04:53:59.083Z,11.98
2022-09-17T04:56:26.728Z,11.89
2022-09-17T04:58:54.334Z,11.85
2022-09-17T05:01:22.003Z,11.83
2022-09-17T05:03:49.986Z,11.78
2022-09-17T05:06:18.996Z,11.75
2022-09-17T05:08:46.619Z,11.78
2022-09-17T05:11:14.289Z,11.83
2022-09-17T05:13:41.903Z,11.84
2022-09-17T05:16:10.333Z,11.88
2022-09-17T05:18:38.023Z,11.91
2022-09-17T05:21:05.903Z,11.91
2022-09-17T05:23:34.942Z,11.84
2022-09-17T05:26:02.906Z,11.82
2022-09-17T05:28:30.585Z,11.84
2022-09-17T05:31:00.231Z,11.87
2022-09-17T05:33:27.961Z,11.88
2022-09-17T05:35:55.672Z,11.81
2022-09-17T05:38:23.450Z,11.82
2022-09-17T05:40:52.493Z,11.84
2022-09-17T05:43:20.230Z,11.83
2022-09-17T05:45:48.195Z,11.87
2022-09-17T05:48:16.543Z,11.86
2022-09-17T05:50:44.173Z,11.87
2022-09-17T05:53:13.514Z,11.82
2022-09-17T05:55:41.264Z,11.77
2022-09-17T05:58:15.109Z,11.73
2022-09-17T06:00:43.400Z,11.72
2022-09-17T06:03:12.496Z,11.72
2022-09-17T06:05:40.199Z,11.68
2022-09-17T06:08:08.252Z,11.65
2022-09-17T06:10:37.400Z,11.69
2022-09-17T06:13:05.299Z,11.71
2022-09-17T06:15:34.291Z,11.71
2022-09-17T06:18:01.962Z,11.76
2022-09-17T06:20:29.662Z,11.75
2022-09-17T06:22:58.152Z,11.79
2022-09-17T06:25:26.461Z,11.82
2022-09-17T06:27:54.124Z,11.81
2022-09-17T06:30:21.794Z,11.86
2022-09-17T06:32:51.127Z,11.90
2022-09-17T06:35:20.349Z,11.89
2022-09-17T06:37:48.711Z,12.04
2022-09-17T06:40:16.585Z,12.17
2022-09-17T06:42:45.362Z,12.24
2022-09-17T06:45:16.587Z,12.23
2022-09-17T06:47:44.814Z,12.23
2022-09-17T06:50:13.869Z,12.20
2022-09-17T06:52:49.046Z,12.22
2022-09-17T06:55:16.975Z,12.32
2022-09-17T06:57:45.392Z,12.36
2022-09-17T07:00:14.275Z,12.43
2022-09-17T07:02:42.299Z,12.62
2022-09-17T07:05:10.715Z,12.82
2022-09-17T07:07:41.182Z,13.03
2022-09-17T07:10:09.678Z,13.08
2022-09-17T07:12:42.929Z,13.21
2022-09-17T07:15:15.822Z,13.29
2022-09-17T07:17:44.402Z,13.32
2022-09-17T07:20:12.716Z,13.39
2022-09-17T07:22:41.798Z,13.31
2022-09-17T07:25:11.072Z,13.28
2022-09-17T07:27:38.874Z,13.10
2022-09-17T07:30:08.119Z,12.90
2022-09-17T07:32:35.865Z,12.84
2022-09-17T07:35:03.588Z,12.80
2022-09-17T07:37:31.302Z,12.93
2022-09-17T07:40:00.398Z,13.07
2022-09-17T07:42:28.389Z,13.20
2022-09-17T07:45:01.207Z,13.28
2022-09-17T07:47:29.788Z,13.15
2022-09-17T07:49:57.729Z,13.18
2022-09-17T07:52:25.408Z,13.24
2022-09-17T07:54:53.055Z,13.32
2022-09-17T07:57:22.079Z,13.41
2022-09-17T07:59:49.708Z,13.46
2022-09-17T08:02:20.717Z,13.59
2022-09-17T08:04:50.936Z,13.62
2022-09-17T08:07:18.943Z,13.89
2022-09-17T08:09:46.578Z,14.02
2022-09-17T08:12:14.686Z,14.05
2022-09-17T08:14:44.301Z,14.13
2022-09-17T08:17:12.519Z,14.22
2022-09-17T08:19:40.236Z,14.28
2022-09-17T08:22:07.862Z,14.40
2022-09-17T08:24:35.492Z,14.40
2022-09-17T08:27:03.133Z,14.29
2022-09-17T08:29:34.991Z,14.07
2022-09-17T08:32:04.421Z,14.29
2022-09-17T08:34:32.066Z,14.28
2022-09-17T08:36:59.778Z,14.48
2022-09-17T08:39:27.453Z,14.46
2022-09-17T08:42:05.547Z,14.57
2022-09-17T08:44:40.944Z,14.68
2022-09-17T08:47:16.626Z,14.82
2022-09-17T08:49:51.719Z,14.91
2022-09-17T08:52:42.880Z,14.95
2022-09-17T08:55:24.727Z,14.92
2022-09-17T08:58:01.079Z,14.99
2022-09-17T09:00:33.864Z,15.28
2022-09-17T09:03:18.614Z,15.41
2022-09-17T09:05:48.751Z,15.16
2022-09-17T09:08:23.466Z,15.30
2022-09-17T09:10:55.388Z,15.44
2022-09-17T09:13:26.769Z,15.66
2022-09-17T09:15:58.925Z,15.81
2022-09-17T09:18:31.492Z,15.46
2022-09-17T09:21:12.508Z,15.40
2022-09-17T09:23:50.609Z,15.31
2022-09-17T09:26:19.991Z,15.52
2022-09-17T09:29:04.308Z,15.53
2022-09-17T09:32:00.638Z,15.61
2022-09-17T09:34:30.722Z,15.65
2022-09-17T09:37:14.649Z,15.49
2022-09-17T09:39:46.239Z,15.39
2022-09-17T09:42:20.381Z,15.37
2022-09-17T09:44:48.162Z,15.44
2022-09-17T09:47:30.383Z,15.40
2022-09-17T09:50:16.173Z,15.25
2022-09-17T09:52:58.684Z,15.22
2022-09-17T09:56:03.203Z,15.20
2022-09-17T09:58:36.074Z,15.14
2022-09-17T10:01:03.914Z,15.09
2022-09-17T10:03:34.053Z,15.26
2022-09-17T10:06:04.871Z,15.38
2022-09-17T10:08:33.868Z,15.44
2022-09-17T10:11:03.362Z,15.47
2022-09-17T10:13:33.271Z,15.44
2022-09-17T10:16:18.073Z,15.55
2022-09-17T10:18:46.775Z,15.63
2022-09-17T10:21:23.184Z,15.86
2022-09-17T10:23:51.749Z,16.00
2022-09-17T10:26:25.504Z,16.20
2022-09-17T10:28:56.624Z,16.23
2022-09-17T10:31:24.506Z,16.46
2022-09-17T10:33:57.152Z,16.60
2022-09-17T10:36:44.098Z,16.84
2022-09-17T10:39:30.802Z,16.90
2022-09-17T10:42:00.457Z,16.86
2022-09-17T10:44:29.670Z,16.66
2022-09-17T10:47:04.223Z,16.67
2022-09-17T10:49:40.861Z,16.91
2022-09-17T10:52:14.641Z,16.96
2022-09-17T10:55:16.429Z,16.62
2022-09-17T10:58:03.087Z,15.89
2022-09-17T11:00:39.905Z,14.92
2022-09-17T11:03:27.034Z,14.32
2022-09-17T11:06:16.327Z,14.16
2022-09-17T11:08:57.338Z,13.94
2022-09-17T11:11:38.114Z,13.91
2022-09-17T11:14:17.638Z,13.83
2022-09-17T11:16:53.031Z,13.76
2022-09-17T11:19:28.207Z,13.49
2022-09-17T11:22:06.409Z,13.18
2022-09-17T11:24:50.527Z,13.06
2022-09-17T11:27:31.304Z,13.23
2022-09-17T11:30:15.320Z,13.28
2022-09-17T11:33:02.701Z,13.42
2022-09-17T11:35:34.079Z,13.57
2022-09-17T11:38:08.092Z,13.69
2022-09-17T11:40:41.822Z,13.79
2022-09-17T11:43:19.465Z,13.92
2022-09-17T11:45:57.711Z,14.10
2022-09-17T11:48:35.019Z,14.08
2022-09-17T11:51:08.154Z,14.14
2022-09-17T11:53:40.655Z,14.22
2022-09-17T11:56:16.824Z,14.25
2022-09-17T11:58:48.110Z,14.38
2022-09-17T12:01:21.908Z,14.52
2022-09-17T12:03:54.411Z,14.41
2022-09-17T12:06:24.347Z,14.19
2022-09-17T12:08:58.355Z,14.00
2022-09-17T12:11:36.250Z,14.05
2022-09-17T12:14:10.677Z,13.98
2022-09-17T12:16:43.459Z,14.01
2022-09-17T12:19:17.045Z,14.11
2022-09-17T12:21:48.453Z,14.19
2022-09-17T12:24:22.790Z,14.31
2022-09-17T12:27:01.232Z,14.47
2022-09-17T12:29:45.285Z,14.66
2022-09-17T12:32:30.431Z,14.68
2022-09-17T12:35:04.261Z,14.66
2022-09-17T12:37:40.636Z,14.53
2022-09-17T12:40:19.902Z,14.56
2022-09-17T12:43:02.798Z,14.80
2022-09-17T12:45:48.565Z,14.94
2022-09-17T12:48:42.562Z,14.94
2022-09-17T12:51:26.208Z,15.13
2022-09-17T12:54:04.427Z,15.15
2022-09-17T12:56:55.155Z,15.23
2022-09-17T12:59:30.997Z,15.42
2022-09-17T13:02:05.186Z,15.56
2022-09-17T13:05:02.275Z,15.51
2022-09-17T13:07:54.509Z,15.51
2022-09-17T13:10:40.010Z,15.52
2022-09-17T13:13:21.549Z,15.65
2022-09-17T13:16:00.231Z,15.80
2022-09-17T13:18:35.233Z,15.99
2022-09-17T13:21:09.268Z,16.09
2022-09-17T13:23:41.478Z,16.10
2022-09-17T13:26:10.587Z,15.91
2022-09-17T13:28:47.252Z,15.31
2022-09-17T13:31:21.821Z,14.27
2022-09-17T13:33:53.953Z,13.58
2022-09-17T13:36:43.152Z,13.10
2022-09-17T13:39:12.864Z,12.77
2022-09-17T13:41:43.432Z,12.82
2022-09-17T13:44:12.578Z,12.92
2022-09-17T13:46:41.724Z,13.11
2022-09-17T13:49:15.911Z,13.29
2022-09-17T13:51:53.671Z,13.39
2022-09-17T13:54:24.294Z,13.35
2022-09-17T13:57:08.497Z,13.47
2022-09-17T13:59:37.681Z,13.67
2022-09-17T14:02:31.378Z,13.83
2022-09-17T14:05:31.838Z,13.91
2022-09-17T14:08:14.894Z,14.07
2022-09-17T14:10:44.998Z,14.22
2022-09-17T14:13:44.659Z,14.38
2022-09-17T14:16:48.074Z,14.60
2022-09-17T14:19:26.423Z,14.62
2022-09-17T14:22:00.910Z,14.75
2022-09-17T14:24:38.506Z,14.81
2022-09-17T14:27:13.615Z,14.86
2022-09-17T14:30:03.175Z,14.86
2022-09-17T14:32:35.106Z,15.05
2022-09-17T14:35:19.796Z,15.05
2022-09-17T14:37:52.548Z,14.99
2022-09-17T14:40:21.985Z,14.87
2022-09-17T14:42:55.034Z,14.85
2022-09-17T14:45:27.763Z,14.64
2022-09-17T14:48:31.024Z,14.52
2022-09-17T14:51:26.474Z,14.53
2022-09-17T14:54:17.350Z,14.67
2022-09-17T14:56:53.439Z,14.67
2022-09-17T14:59:28.494Z,14.76
2022-09-17T15:01:56.488Z,14.70
2022-09-17T15:04:27.005Z,14.68
2022-09-17T15:07:08.951Z,14.80
2022-09-17T15:09:36.876Z,15.01
2022-09-17T15:12:06.077Z,15.06
2022-09-17T15:14:38.004Z,15.21
2022-09-17T15:17:06.962Z,15.36
2022-09-17T15:19:38.739Z,15.52
2022-09-17T15:22:10.126Z,15.64
2022-09-17T15:24:42.783Z,15.63
2022-09-17T15:27:15.468Z,15.74
2022-09-17T15:29:47.150Z,15.83
2022-09-17T15:32:15.549Z,15.88
2022-09-17T15:34:43.454Z,15.71
2022-09-17T15:37:20.386Z,15.57
2022-09-17T15:39:54.594Z,15.44
2022-09-17T15:42:25.323Z,15.15
2022-09-17T15:44:53.416Z,14.98
2022-09-17T15:47:38.733Z,14.81
2022-09-17T15:50:18.007Z,14.58
2022-09-17T15:52:47.702Z,14.10
2022-09-17T15:55:33.540Z,13.44
2022-09-17T15:58:02.288Z,13.21
2022-09-17T16:00:30.021Z,13.07
2022-09-17T16:02:57.947Z,13.01
2022-09-17T16:05:54.222Z,12.77
2022-09-17T16:08:25.828Z,12.58
2022-09-17T16:10:53.531Z,12.68
2022-09-17T16:13:24.093Z,12.90
2022-09-17T16:15:54.350Z,13.12
2022-09-17T16:18:22.081Z,13.23
2022-09-17T16:20:49.784Z,13.23
2022-09-17T16:23:17.462Z,13.28
2022-09-17T16:25:46.630Z,13.30
2022-09-17T16:28:17.480Z,13.28
2022-09-17T16:30:47.758Z,13.21
2022-09-17T16:33:17.160Z,13.28
2022-09-17T16:35:45.173Z,13.33
2022-09-17T16:38:13.925Z,13.33
2022-09-17T16:40:43.137Z,13.28
2022-09-17T16:43:12.293Z,13.28
2022-09-17T16:45:40.091Z,13.26
2022-09-17T16:48:07.860Z,13.23
2022-09-17T16:50:35.907Z,13.17
2022-09-17T16:53:05.469Z,13.19
2022-09-17T16:55:33.541Z,13.20
2022-09-17T16:58:01.212Z,13.17
2022-09-17T17:00:30.459Z,13.16
2022-09-17T17:02:58.906Z,13.18
2022-09-17T17:05:27.775Z,13.23
2022-09-17T17:07:56.276Z,13.30
2022-09-17T17:10:24.354Z,13.31
2022-09-17T17:12:52.434Z,13.37
2022-09-17T17:15:20.886Z,13.34
2022-09-17T17:17:49.976Z,13.31
2022-09-17T17:20:17.961Z,13.30
2022-09-17T17:22:46.021Z,13.32
2022-09-17T17:25:15.386Z,13.31
2022-09-17T17:27:44.390Z,13.26
2022-09-17T17:30:16.759Z,13.17
2022-09-17T17:32:45.912Z,13.23
2022-09-17T17:35:15.058Z,13.21
2022-09-17T17:37:42.904Z,13.17
2022-09-17T17:40:11.654Z,13.17
2022-09-17T17:42:43.738Z,13.14
2022-09-17T17:45:12.253Z,13.10
2022-09-17T17:47:40.007Z,13.10
2022-09-17T17:50:08.664Z,13.09
2022-09-17T17:52:39.075Z,13.06
2022-09-17T17:55:07.528Z,13.02
2022-09-17T17:57:35.121Z,13.00
2022-09-17T18:00:03.554Z,13.02
2022-09-17T18:02:31.337Z,13.01
2022-09-17T18:05:03.911Z,13.05
2022-09-17T18:07:32.123Z,13.06
2022-09-17T18:10:01.211Z,13.03
2022-09-17T18:12:28.857Z,13.07
2022-09-17T18:14:56.494Z,13.13
2022-09-17T18:17:24.199Z,13.09
2022-09-17T18:19:52.275Z,13.07
2022-09-17T18:22:19.974Z,13.11
2022-09-17T18:24:47.599Z,13.15
2022-09-17T18:27:16.645Z,13.16
2022-09-17T18:29:44.307Z,13.19
2022-09-17T18:32:12.025Z,13.16
2022-09-17T18:34:39.692Z,13.20
2022-09-17T18:37:07.351Z,13.27
2022-09-17T18:40:04.985Z,13.31
2022-09-17T18:42:24.106Z,13.29
2022-09-17T18:44:51.770Z,13.30
2022-09-17T18:47:19.392Z,13.28
2022-09-17T18:49:47.062Z,13.29
2022-09-17T18:52:14.688Z,13.33
2022-09-17T18:54:42.809Z,13.38
2022-09-17T18:57:10.491Z,13.36
2022-09-17T18:59:39.533Z,13.41
2022-09-17T19:02:07.880Z,13.43
2022-09-17T19:04:35.572Z,13.43
2022-09-17T19:07:03.356Z,13.43
2022-09-17T19:09:31.027Z,13.38
2022-09-17T19:11:59.010Z,13.44
2022-09-17T19:14:26.758Z,13.44
2022-09-17T19:16:56.265Z,13.44
2022-09-17T19:19:23.928Z,13.46
2022-09-17T19:21:51.592Z,13.48
2022-09-17T19:24:19.252Z,13.48
2022-09-17T19:26:50.752Z,13.49
2022-09-17T19:29:18.825Z,13.49
2022-09-17T19:31:46.839Z,13.48
2022-09-17T19:34:16.006Z,13.45
2022-09-17T19:36:43.712Z,13.35
2022-09-17T19:39:11.412Z,13.26
2022-09-17T19:41:39.100Z,13.24
2022-09-17T19:44:06.781Z,13.26
2022-09-17T19:46:35.193Z,13.22
2022-09-17T19:49:03.088Z,13.14
2022-09-17T19:51:32.300Z,13.06
2022-09-17T19:54:02.451Z,13.02
2022-09-17T19:56:30.255Z,13.04
2022-09-17T19:59:00.333Z,13.08
2022-09-17T20:01:28.190Z,13.02
2022-09-17T20:03:55.888Z,13.04
2022-09-17T20:06:24.022Z,13.03
2022-09-17T20:08:54.707Z,13.05
2022-09-17T20:11:24.590Z,13.01
2022-09-17T20:13:58.215Z,13.00
2022-09-17T20:16:26.664Z,13.00
2022-09-17T20:18:54.770Z,13.00
2022-09-17T20:21:24.382Z,12.92
2022-09-17T20:23:53.558Z,12.92
2022-09-17T20:26:21.778Z,12.83
2022-09-17T20:28:51.115Z,12.83
2022-09-17T20:31:20.392Z,12.87
2022-09-17T20:33:48.479Z,12.89
2022-09-17T20:36:18.110Z,12.91
2022-09-17T20:41:38.906Z,12.96
2022-09-17T20:44:08.061Z,12.93
2022-09-17T20:46:35.957Z,12.90
2022-09-17T20:49:03.877Z,12.88
2022-09-17T20:51:32.749Z,12.87
2022-09-17T20:54:01.003Z,12.86
2022-09-17T20:56:31.340Z,12.84
2022-09-17T20:59:08.644Z,12.85
2022-09-17T21:01:37.817Z,12.86
2022-09-17T21:04:08.167Z,12.88
2022-09-17T21:06:38.176Z,12.84
2022-09-17T21:09:06.695Z,12.82
2022-09-17T21:11:35.460Z,12.78
2022-09-17T21:14:05.157Z,12.75
2022-09-17T21:16:32.889Z,12.73
2022-09-17T21:19:02.574Z,12.70
2022-09-17T21:21:34.127Z,12.71
2022-09-17T21:24:02.796Z,12.71
2022-09-17T21:26:31.230Z,12.69
2022-09-17T21:28:59.335Z,12.61
2022-09-17T21:31:32.765Z,12.55
2022-09-17T21:34:02.568Z,12.59
2022-09-17T21:36:33.029Z,12.56
2022-09-17T21:39:02.192Z,12.57
2022-09-17T21:41:30.240Z,12.56
2022-09-17T21:43:58.196Z,12.53
2022-09-17T21:46:29.331Z,12.59
2022-09-17T21:48:59.826Z,12.61
2022-09-17T21:51:30.498Z,12.59
2022-09-17T21:54:00.406Z,12.62
2022-09-17T21:56:29.305Z,12.63
2022-09-17T21:58:58.346Z,12.64
2022-09-17T22:01:31.125Z,12.68
2022-09-17T22:04:00.118Z,12.64
2022-09-17T22:06:29.632Z,12.64
2022-09-17T22:08:58.913Z,12.65
2022-09-17T22:11:29.390Z,12.67
2022-09-17T22:13:58.758Z,12.61
2022-09-17T22:16:30.757Z,12.53
2022-09-17T22:18:59.460Z,12.56
2022-09-17T22:21:29.008Z,12.56
2022-09-17T22:24:00.074Z,12.53
2022-09-17T22:26:30.063Z,12.48
2022-09-17T22:29:01.541Z,12.51
2022-09-17T22:31:30.719Z,12.53
2022-09-17T22:33:59.145Z,12.56
2022-09-17T22:36:27.846Z,12.53
2022-09-17T22:38:57.397Z,12.53
2022-09-17T22:41:26.567Z,12.55
2022-09-17T22:43:55.618Z,12.56
2022-09-17T22:46:25.433Z,12.56
2022-09-17T22:48:54.594Z,12.59
2022-09-17T22:51:22.486Z,12.60
2022-09-17T22:53:50.553Z,12.64
2022-09-17T22:56:20.638Z,12.62
2022-09-17T22:58:48.939Z,12.62
2022-09-17T23:01:28.686Z,12.58
2022-09-17T23:04:00.021Z,12.58
2022-09-17T23:06:29.053Z,12.59
2022-09-17T23:08:57.322Z,12.59
2022-09-17T23:11:26.898Z,12.60
2022-09-17T23:13:57.496Z,12.56
2022-09-17T23:16:25.931Z,12.54
2022-09-17T23:18:53.583Z,12.57
2022-09-17T23:21:22.790Z,12.59
2022-09-17T23:23:51.877Z,12.56
2022-09-17T23:26:21.674Z,12.58
2022-09-17T23:28:49.786Z,12.58
2022-09-17T23:31:20.376Z,12.61
2022-09-17T23:33:48.490Z,12.62
2022-09-17T23:36:19.239Z,12.58
2022-09-17T23:38:49.558Z,12.61
2022-09-17T23:41:19.833Z,12.64
2022-09-17T23:43:49.488Z,12.65
2022-09-17T23:46:17.628Z,12.69
2022-09-17T23:48:45.590Z,12.68
2022-09-17T23:51:13.474Z,12.69
2022-09-17T23:53:41.278Z,12.65
2022-09-17T23:56:13.543Z,12.66
2022-09-17T23:58:41.207Z,12.66
